Time;durP1;ratioP1;P1;durP2;ratioP2;P2;SDS_P1;SDS_P2;PMS_P1;PMS_P2;Temp;Humidity;BMP_temperature;BMP_pressure;BME280_temperature;BME280_humidity;BME280_pressure;Samples;Min_cycle;Max_cycle;Signal;HPM_P1;HPM_P2
2022/05/12 00:01:55;;;;;;;3.63;0.93;;;;;;;11.37;96.76;101014.53;4963421;28;20077;-71
2022/05/12 00:04:21;;;;;;;7.82;1.30;;;;;;;11.42;96.35;101022.84;4983084;28;20031;-71
2022/05/12 00:06:46;;;;;;;3.17;0.80;;;;;;;11.43;95.90;101023.66;4983613;28;20034;-71
2022/05/12 00:09:12;;;;;;;3.15;0.90;;;;;;;11.43;94.86;101019.22;4983786;28;20061;-72
2022/05/12 00:11:37;;;;;;;2.80;1.13;;;;;;;11.47;94.67;101036.41;4983381;28;20073;-72
2022/05/12 00:14:03;;;;;;;5.78;1.38;;;;;;;11.42;94.68;101032.59;4985494;28;20045;-72
2022/05/12 00:16:28;;;;;;;3.63;1.30;;;;;;;11.40;93.73;101051.22;4985323;28;20084;-72
2022/05/12 00:18:53;;;;;;;3.95;1.35;;;;;;;11.28;94.46;101058.56;4981694;28;20044;-72
2022/05/12 00:21:19;;;;;;;2.33;1.02;;;;;;;11.26;92.88;101065.81;4981790;28;20022;-72
2022/05/12 00:23:56;;;;;;;3.15;0.90;;;;;;;11.19;93.73;101064.75;4983734;28;20078;-72
2022/05/12 00:26:29;;;;;;;6.03;1.20;;;;;;;11.08;93.69;101078.97;4982593;28;20502;-72
2022/05/12 00:28:57;;;;;;;3.72;1.27;;;;;;;11.01;93.23;101080.53;4952466;28;20022;-72
2022/05/12 00:31:23;;;;;;;3.55;1.15;;;;;;;10.89;93.28;101076.44;4982008;28;20042;-72
2022/05/12 00:33:48;;;;;;;5.28;1.35;;;;;;;10.91;93.54;101090.34;4961167;28;20522;-72
2022/05/12 00:36:14;;;;;;;1.33;0.90;;;;;;;10.88;92.77;101098.53;4971284;28;20074;-71
2022/05/12 00:38:40;;;;;;;3.20;1.50;;;;;;;10.68;92.79;101089.84;4981650;28;20034;-71
2022/05/12 00:41:05;;;;;;;2.10;0.80;;;;;;;10.76;93.05;101105.81;4954376;28;20045;-72
2022/05/12 00:43:42;;;;;;;3.42;1.05;;;;;;;10.74;92.36;101112.22;4983530;28;20027;-72
2022/05/12 00:46:11;;;;;;;2.03;1.02;;;;;;;10.61;92.77;101104.63;4982528;28;20401;-72
2022/05/12 00:48:37;;;;;;;3.28;1.58;;;;;;;10.54;93.35;101101.72;4982482;28;20022;-72
2022/05/12 00:51:04;;;;;;;1.60;0.60;;;;;;;10.59;93.23;101122.41;4980660;28;20043;-72
2022/05/12 00:53:32;;;;;;;2.97;0.88;;;;;;;10.50;92.16;101116.19;4983609;28;20042;-72
2022/05/12 00:55:59;;;;;;;6.20;0.90;;;;;;;10.58;91.85;101134.78;4981681;28;20030;-72
2022/05/12 00:58:27;;;;;;;2.50;0.75;;;;;;;10.47;91.99;101127.00;4983833;28;20584;-72
2022/05/12 01:00:52;;;;;;;3.53;0.88;;;;;;;10.43;92.33;101117.69;4982110;28;20029;-72
2022/05/12 01:03:25;;;;;;;1.85;0.98;;;;;;;10.37;92.04;101134.94;4959879;28;20031;-72
2022/05/12 01:05:52;;;;;;;1.88;1.02;;;;;;;10.43;93.36;101152.00;4981635;28;20033;-72
2022/05/12 01:08:20;;;;;;;2.15;0.82;;;;;;;10.33;92.30;101140.66;4980138;28;20034;-71
2022/05/12 01:10:56;;;;;;;2.47;0.88;;;;;;;10.35;92.40;101157.16;4977867;28;20117;-71
2022/05/12 01:13:22;;;;;;;2.67;1.25;;;;;;;10.33;92.13;101162.59;4983099;28;20033;-72
2022/05/12 01:15:53;;;;;;;4.75;0.90;;;;;;;10.27;93.08;101156.00;4987077;28;20398;-71
2022/05/12 01:18:18;;;;;;;1.80;0.90;;;;;;;10.29;92.20;101163.84;4985683;28;20037;-71
2022/05/12 01:20:48;;;;;;;3.78;0.98;;;;;;;10.27;93.22;101163.94;4986149;28;20030;-71
2022/05/12 01:23:17;;;;;;;1.58;1.10;;;;;;;10.22;93.23;101171.44;4985222;28;20038;-72
2022/05/12 01:25:42;;;;;;;1.67;0.82;;;;;;;10.13;92.86;101161.72;4987364;28;20047;-72
2022/05/12 01:28:07;;;;;;;4.72;1.30;;;;;;;10.14;93.21;101170.47;4985326;28;20034;-72
2022/05/12 01:30:33;;;;;;;1.95;1.15;;;;;;;10.06;93.73;101177.28;4976037;28;20026;-72
2022/05/12 01:32:59;;;;;;;2.38;1.17;;;;;;;10.01;94.66;101183.94;4984921;28;20477;-72
2022/05/12 01:35:25;;;;;;;2.30;0.93;;;;;;;9.96;94.42;101186.97;4986263;28;20029;-71
2022/05/12 01:37:51;;;;;;;1.88;1.08;;;;;;;9.81;95.57;101181.28;4987541;28;20027;-72
2022/05/12 01:40:20;;;;;;;3.63;1.08;;;;;;;9.69;96.11;101179.75;4958450;28;20031;-71
2022/05/12 01:42:46;;;;;;;4.50;0.80;;;;;;;9.67;96.97;101186.97;4986626;28;20022;-71
2022/05/12 01:45:12;;;;;;;4.25;1.13;;;;;;;9.62;97.01;101195.25;4987823;28;20140;-71
2022/05/12 01:47:39;;;;;;;3.00;0.98;;;;;;;9.63;97.28;101201.38;4967294;28;20117;-71
2022/05/12 01:50:06;;;;;;;2.40;1.30;;;;;;;9.60;97.63;101218.28;4986887;28;20069;-72
2022/05/12 01:52:31;;;;;;;4.57;1.25;;;;;;;9.62;97.89;101218.13;4985431;28;20191;-71
2022/05/12 01:54:57;;;;;;;3.10;1.10;;;;;;;9.50;97.01;101200.78;4982996;28;20031;-71
2022/05/12 01:57:22;;;;;;;1.58;0.82;;;;;;;9.57;97.19;101217.72;4965614;28;20482;-71
2022/05/12 01:59:51;;;;;;;3.30;1.17;;;;;;;9.51;97.80;101226.97;4966913;28;20034;-71
2022/05/12 02:02:17;;;;;;;1.52;0.93;;;;;;;9.52;97.69;101235.75;4985073;28;20030;-71
2022/05/12 02:04:42;;;;;;;6.15;1.40;;;;;;;9.38;98.37;101229.84;4986654;28;20457;-71
2022/05/12 02:07:08;;;;;;;2.55;1.05;;;;;;;9.43;98.60;101238.19;4986829;28;20417;-72
2022/05/12 02:09:33;;;;;;;2.22;1.23;;;;;;;9.38;98.99;101243.00;4966371;28;20409;-71
2022/05/12 02:11:59;;;;;;;2.50;1.20;;;;;;;9.38;98.39;101239.53;4987323;28;20035;-71
2022/05/12 02:14:25;;;;;;;2.97;1.30;;;;;;;9.33;99.05;101247.03;4981188;28;20453;-71
2022/05/12 02:16:50;;;;;;;6.57;1.48;;;;;;;9.27;99.54;101251.84;4967925;28;20039;-71
2022/05/12 02:19:16;;;;;;;4.90;1.35;;;;;;;9.27;99.38;101248.38;4982490;28;20114;-71
2022/05/12 02:21:41;;;;;;;3.03;1.00;;;;;;;9.27;99.64;101258.91;4987174;28;20109;-71
2022/05/12 02:24:07;;;;;;;3.35;1.40;;;;;;;9.17;99.56;101253.59;4982691;28;20445;-71
2022/05/12 02:26:32;;;;;;;4.07;1.40;;;;;;;9.20;100.00;101273.56;4966659;28;20054;-72
2022/05/12 02:28:58;;;;;;;1.38;0.93;;;;;;;9.16;100.00;101274.78;4983939;28;20031;-71
2022/05/12 02:31:24;;;;;;;1.63;1.00;;;;;;;9.10;99.98;101278.75;4974873;28;20490;-72
2022/05/12 02:33:49;;;;;;;2.15;1.20;;;;;;;9.12;99.77;101281.28;4965470;28;20042;-72
2022/05/12 02:36:15;;;;;;;3.45;1.20;;;;;;;9.01;99.51;101267.22;4982907;28;20045;-71
2022/05/12 02:38:40;;;;;;;2.65;1.25;;;;;;;9.05;100.00;101281.78;4985199;28;20045;-71
2022/05/12 02:41:06;;;;;;;2.05;1.30;;;;;;;8.96;100.00;101271.22;4966879;28;20120;-71
2022/05/12 02:43:31;;;;;;;6.80;1.23;;;;;;;8.98;100.00;101275.38;4963854;28;20034;-71
2022/05/12 02:46:00;;;;;;;4.90;1.65;;;;;;;8.99;100.00;101287.59;4968239;28;20039;-72
2022/05/12 02:48:33;;;;;;;3.50;1.40;;;;;;;9.00;100.00;101294.53;4983645;28;20485;-71
2022/05/12 02:50:59;;;;;;;3.80;1.35;;;;;;;8.98;100.00;101285.91;4984707;28;20026;-72
2022/05/12 02:53:25;;;;;;;2.22;1.50;;;;;;;8.97;100.00;101294.78;4967492;28;20027;-72
2022/05/12 02:55:51;;;;;;;4.75;1.92;;;;;;;8.91;100.00;101284.78;4965644;28;20038;-72
2022/05/12 02:58:16;;;;;;;6.60;1.40;;;;;;;8.92;100.00;101290.84;4973054;28;20046;-71
2022/05/12 03:00:42;;;;;;;6.35;1.25;;;;;;;8.95;100.00;101312.50;4962525;28;20027;-71
2022/05/12 03:03:07;;;;;;;5.63;1.70;;;;;;;8.88;100.00;101305.22;4982128;28;20037;-71
2022/05/12 03:05:37;;;;;;;7.72;2.17;;;;;;;8.91;100.00;101315.53;4981660;28;20027;-71
2022/05/12 03:08:03;;;;;;;3.20;1.55;;;;;;;8.87;100.00;101325.47;4962886;28;20033;-71
2022/05/12 03:10:30;;;;;;;3.65;1.67;;;;;;;8.84;100.00;101326.56;4986737;28;20061;-72
2022/05/12 03:12:55;;;;;;;7.15;2.00;;;;;;;8.79;100.00;101333.97;4974790;28;20532;-71
2022/05/12 03:15:21;;;;;;;5.47;2.08;;;;;;;8.69;100.00;101333.09;4984933;28;20027;-71
2022/05/12 03:17:46;;;;;;;6.38;1.92;;;;;;;8.59;100.00;101337.44;4979727;28;20054;-71
2022/05/12 03:20:15;;;;;;;5.25;2.35;;;;;;;8.50;100.00;101330.28;4955451;28;20038;-71
2022/05/12 03:22:41;;;;;;;5.15;1.92;;;;;;;8.44;100.00;101329.81;4960619;28;20041;-71
2022/05/12 03:25:09;;;;;;;6.45;2.40;;;;;;;8.48;100.00;101332.19;4965062;28;20051;-71
2022/05/12 03:27:35;;;;;;;2.92;1.80;;;;;;;8.49;100.00;101332.06;4986884;28;20037;-71
2022/05/12 03:30:01;;;;;;;3.83;1.90;;;;;;;8.48;100.00;101340.91;4965254;28;20041;-72
2022/05/12 03:32:26;;;;;;;8.32;2.05;;;;;;;8.36;100.00;101337.47;4975926;28;20023;-72
2022/05/12 03:34:51;;;;;;;5.30;2.10;;;;;;;8.37;100.00;101339.13;4964422;28;20030;-71
2022/05/12 03:37:17;;;;;;;5.63;2.03;;;;;;;8.34;100.00;101341.16;4979905;28;20047;-71
2022/05/12 03:39:43;;;;;;;5.57;1.85;;;;;;;8.34;100.00;101349.03;4981502;28;20026;-71
2022/05/12 03:42:15;;;;;;;6.32;2.15;;;;;;;8.28;100.00;101358.28;4986966;28;20026;-71
2022/05/12 03:44:49;;;;;;;6.55;2.70;;;;;;;8.26;100.00;101362.00;4981582;28;20468;-71
2022/05/12 03:47:25;;;;;;;7.35;2.25;;;;;;;8.23;100.00;101368.31;4971561;28;20061;-71
2022/05/12 03:50:02;;;;;;;3.45;2.15;;;;;;;8.21;100.00;101367.63;4979884;28;20153;-71
2022/05/12 03:52:28;;;;;;;3.78;2.15;;;;;;;8.26;100.00;101370.72;4987177;28;20022;-71
2022/05/12 03:54:54;;;;;;;5.07;2.13;;;;;;;8.28;100.00;101375.84;4977043;28;20030;-71
2022/05/12 03:57:22;;;;;;;5.88;2.20;;;;;;;8.30;100.00;101379.22;4964368;28;20389;-71
2022/05/12 03:59:48;;;;;;;13.88;3.13;;;;;;;8.34;100.00;101381.47;4980933;28;20049;-71
2022/05/12 04:02:14;;;;;;;4.65;2.30;;;;;;;8.37;100.00;101385.63;4978312;28;20030;-71
2022/05/12 04:04:41;;;;;;;12.27;2.33;;;;;;;8.40;100.00;101388.88;4958665;28;20037;-71
2022/05/12 04:07:07;;;;;;;10.27;2.63;;;;;;;8.47;100.00;101391.88;4981235;28;20030;-71
2022/05/12 04:09:33;;;;;;;5.50;2.55;;;;;;;8.45;100.00;101399.06;4980944;28;20026;-71
2022/05/12 04:11:58;;;;;;;5.85;2.25;;;;;;;8.50;100.00;101399.50;4987657;28;20030;-71
2022/05/12 04:14:24;;;;;;;5.72;2.40;;;;;;;8.44;100.00;101382.41;4983806;28;20022;-72
2022/05/12 04:16:49;;;;;;;7.10;2.92;;;;;;;8.58;100.00;101404.13;4981321;28;20104;-71
2022/05/12 04:19:15;;;;;;;7.28;2.47;;;;;;;8.65;100.00;101411.44;4978164;28;20026;-71
2022/05/12 04:21:41;;;;;;;6.95;2.72;;;;;;;8.60;100.00;101412.75;4979575;28;20030;-71
2022/05/12 04:24:08;;;;;;;5.60;2.80;;;;;;;8.69;100.00;101416.44;4979410;28;20371;-71
2022/05/12 04:26:35;;;;;;;7.80;3.00;;;;;;;8.69;100.00;101419.06;4980671;28;20051;-73
2022/05/12 04:29:00;;;;;;;7.50;3.25;;;;;;;8.78;100.00;101423.63;4979037;28;20029;-71
2022/05/12 04:31:26;;;;;;;6.22;3.08;;;;;;;8.83;100.00;101424.06;4974407;28;20401;-72
2022/05/12 04:36:36;;;;;;;6.72;3.05;;;;;;;8.89;100.00;101414.84;4977043;28;20061;-71
2022/05/12 04:39:06;;;;;;;4.85;2.53;;;;;;;9.01;100.00;101427.81;4961861;28;20078;-71
2022/05/12 04:41:31;;;;;;;9.68;4.20;;;;;;;9.01;100.00;101421.72;4977224;28;20038;-71
2022/05/12 04:43:58;;;;;;;7.13;3.22;;;;;;;9.11;100.00;101437.63;4977813;28;20628;-70
2022/05/12 04:46:25;;;;;;;13.75;3.20;;;;;;;9.19;100.00;101435.16;4980816;28;20477;-71
2022/05/12 04:48:50;;;;;;;9.00;3.85;;;;;;;9.18;100.00;101429.06;4984930;28;20133;-71
2022/05/12 04:51:15;;;;;;;11.43;3.70;;;;;;;9.27;100.00;101438.00;4975398;28;20128;-71
2022/05/12 04:53:41;;;;;;;9.00;3.20;;;;;;;9.28;100.00;101429.16;4969283;28;20038;-71
2022/05/12 04:56:06;;;;;;;9.43;3.38;;;;;;;9.44;100.00;101447.97;4977722;28;20243;-72
2022/05/12 04:58:32;;;;;;;12.25;3.15;;;;;;;9.45;100.00;101447.03;4972923;28;20041;-72
2022/05/12 05:00:57;;;;;;;6.72;3.45;;;;;;;9.58;100.00;101456.53;4975812;28;20072;-71
2022/05/12 05:03:23;;;;;;;6.78;3.00;;;;;;;9.63;100.00;101459.63;4966036;28;20049;-71
2022/05/12 05:05:49;;;;;;;7.40;3.05;;;;;;;9.79;100.00;101464.44;4954019;28;20026;-72
2022/05/12 05:08:18;;;;;;;6.78;2.97;;;;;;;9.88;100.00;101477.66;4950696;28;20027;-71
2022/05/12 05:10:43;;;;;;;7.70;3.38;;;;;;;9.91;100.00;101473.09;4979069;28;20030;-71
2022/05/12 05:13:09;;;;;;;9.70;3.70;;;;;;;9.95;100.00;101479.78;4979593;28;20105;-73
2022/05/12 05:15:35;;;;;;;6.63;2.85;;;;;;;10.02;100.00;101478.31;4968733;28;20033;-70
2022/05/12 05:18:01;;;;;;;8.20;3.17;;;;;;;10.06;100.00;101477.94;4979697;28;20030;-71
2022/05/12 05:20:29;;;;;;;6.93;2.67;;;;;;;10.16;100.00;101488.50;4979474;28;20113;-72
2022/05/12 05:22:55;;;;;;;7.63;3.03;;;;;;;10.21;100.00;101485.47;4979787;28;20035;-72
2022/05/12 05:25:21;;;;;;;9.52;3.10;;;;;;;10.25;100.00;101484.25;4978707;28;20070;-72
2022/05/12 05:27:48;;;;;;;9.40;3.65;;;;;;;10.29;100.00;101489.16;4969638;28;20485;-72
2022/05/12 05:30:18;;;;;;;9.23;2.85;;;;;;;10.28;100.00;101503.28;4952909;28;20030;-73
2022/05/12 05:32:43;;;;;;;16.65;5.10;;;;;;;10.35;100.00;101493.09;4979194;28;20019;-71
2022/05/12 05:35:12;;;;;;;8.75;3.50;;;;;;;10.39;100.00;101506.84;4977623;28;20031;-73
2022/05/12 05:37:37;;;;;;;7.22;2.88;;;;;;;10.50;100.00;101512.03;4978979;28;20042;-73
2022/05/12 05:40:05;;;;;;;9.45;3.35;;;;;;;10.57;100.00;101518.44;4978480;28;20038;-73
2022/05/12 05:42:31;;;;;;;10.77;3.67;;;;;;;10.62;100.00;101516.22;4981684;28;20054;-71
2022/05/12 05:44:56;;;;;;;9.15;3.03;;;;;;;10.75;100.00;101515.16;4963554;28;20049;-71
2022/05/12 05:47:22;;;;;;;9.13;4.22;;;;;;;10.79;100.00;101511.28;4979686;28;20038;-71
2022/05/12 05:49:47;;;;;;;7.50;2.92;;;;;;;10.86;100.00;101518.50;4969436;28;20030;-73
2022/05/12 05:54:57;;;;;;;6.80;3.45;;;;;;;11.14;100.00;101516.06;4978690;28;20377;-73
2022/05/12 05:57:30;;;;;;;8.48;2.90;;;;;;;11.24;100.00;101524.84;4964925;28;20035;-72
2022/05/12 05:59:57;;;;;;;7.30;3.05;;;;;;;11.43;100.00;101531.97;4969639;28;20513;-73
2022/05/12 06:02:23;;;;;;;8.00;3.33;;;;;;;11.35;100.00;101508.03;4983450;28;20064;-73
2022/05/12 06:04:48;;;;;;;6.25;2.80;;;;;;;11.67;99.96;101520.09;4958651;28;20066;-72
2022/05/12 06:07:14;;;;;;;7.75;3.00;;;;;;;11.76;98.79;101521.06;4978087;28;20038;-73
2022/05/12 06:09:41;;;;;;;8.32;3.33;;;;;;;11.93;97.96;101521.25;4964769;28;20093;-72
2022/05/12 06:12:08;;;;;;;7.20;2.83;;;;;;;12.10;97.75;101534.69;4970691;28;20033;-73
2022/05/12 06:14:33;;;;;;;9.57;4.32;;;;;;;12.34;96.56;101542.13;4974999;28;20037;-73
2022/05/12 06:16:59;;;;;;;6.13;2.58;;;;;;;12.51;95.53;101545.84;4987653;28;20065;-73
2022/05/12 06:19:24;;;;;;;7.07;2.47;;;;;;;12.57;94.92;101552.38;4956978;28;20092;-72
2022/05/12 06:21:50;;;;;;;5.15;2.38;;;;;;;12.53;93.27;101538.59;4992454;28;20067;-73
2022/05/12 06:24:15;;;;;;;10.13;2.72;;;;;;;12.67;92.57;101550.50;4956548;28;20030;-73
2022/05/12 06:26:41;;;;;;;6.65;2.30;;;;;;;12.93;92.72;101572.72;4973541;28;20563;-74
2022/05/12 06:29:06;;;;;;;6.65;2.22;;;;;;;12.97;91.79;101571.41;4985030;28;20463;-73
2022/05/12 06:31:33;;;;;;;8.10;2.40;;;;;;;13.10;90.88;101570.22;4990396;28;20038;-72
2022/05/12 06:33:59;;;;;;;9.50;2.70;;;;;;;13.30;91.03;101570.97;4980147;28;20034;-73
2022/05/12 06:36:25;;;;;;;10.63;2.47;;;;;;;13.78;89.65;101575.06;4969554;28;20478;-72
2022/05/12 06:38:51;;;;;;;8.90;2.80;;;;;;;14.18;86.13;101574.53;4957871;28;20038;-73
2022/05/12 06:41:17;;;;;;;4.82;1.95;;;;;;;14.65;83.55;101591.91;4975345;28;20034;-72
2022/05/12 06:43:45;;;;;;;5.10;1.70;;;;;;;15.09;81.49;101599.78;4959310;28;20402;-73
2022/05/12 06:46:12;;;;;;;6.22;1.65;;;;;;;15.41;79.47;101595.50;4973453;28;20493;-73
2022/05/12 06:48:38;;;;;;;4.35;1.33;;;;;;;15.94;78.32;101599.59;4972928;28;20031;-73
2022/05/12 06:51:03;;;;;;;6.40;1.67;;;;;;;16.18;75.83;101603.25;4990998;28;20505;-74
2022/05/12 06:53:29;;;;;;;2.88;1.70;;;;;;;16.51;75.95;101595.19;4973598;28;20109;-73
2022/05/12 06:55:54;;;;;;;5.97;1.60;;;;;;;16.84;73.81;101603.94;4975732;28;20086;-73
2022/05/12 06:58:20;;;;;;;5.45;1.63;;;;;;;17.50;71.88;101614.25;4972896;28;20035;-72
2022/05/12 07:00:46;;;;;;;8.80;1.90;;;;;;;17.51;71.48;101615.91;4974370;28;20031;-72
2022/05/12 07:03:12;;;;;;;4.10;1.75;;;;;;;17.83;70.98;101618.38;4973725;28;20034;-72
2022/05/12 07:05:39;;;;;;;8.52;1.67;;;;;;;18.43;70.78;101634.53;4988412;28;20023;-72
2022/05/12 07:08:06;;;;;;;5.85;1.85;;;;;;;18.55;66.34;101629.56;4975558;28;20023;-72
2022/05/12 07:10:32;;;;;;;6.53;1.90;;;;;;;18.59;66.57;101633.53;4968916;28;20438;-73
2022/05/12 07:12:57;;;;;;;5.05;1.27;;;;;;;18.90;67.20;101644.91;4976956;28;20037;-73
2022/05/12 07:15:27;;;;;;;5.18;1.30;;;;;;;18.83;66.14;101638.63;4974663;28;20405;-72
2022/05/12 07:17:55;;;;;;;6.85;1.65;;;;;;;19.26;64.70;101644.13;4977751;28;20018;-73
2022/05/12 07:28:36;;;;;;;5.18;1.30;;;;;;;20.16;62.30;101639.25;4974454;28;20053;-73
2022/05/12 07:31:02;;;;;;;7.90;1.55;;;;;;;20.58;61.67;101666.19;4972959;28;20969;-74
2022/05/12 07:33:42;;;;;;;5.35;1.25;;;;;;;20.85;60.78;101669.88;4980087;28;20492;-73
2022/05/12 07:36:15;;;;;;;3.88;1.50;;;;;;;21.31;60.03;101669.25;4968936;28;20396;-72
2022/05/12 07:38:42;;;;;;;3.35;1.20;;;;;;;21.85;58.73;101672.91;4971804;28;20158;-75
2022/05/12 07:41:09;;;;;;;6.47;1.20;;;;;;;22.09;56.96;101677.69;4978157;28;20037;-73
2022/05/12 07:43:35;;;;;;;7.82;1.60;;;;;;;22.08;56.33;101681.44;4972419;28;20333;-74
2022/05/12 07:46:00;;;;;;;3.25;1.23;;;;;;;21.21;55.81;101684.88;4973971;28;20132;-74
2022/05/12 07:48:26;;;;;;;4.15;0.90;;;;;;;21.63;55.62;101686.53;4952620;28;20030;-74
2022/05/12 07:50:51;;;;;;;6.05;1.27;;;;;;;22.35;54.99;101682.28;4974716;28;20054;-74
2022/05/12 07:53:17;;;;;;;9.23;1.50;;;;;;;22.47;55.34;101689.69;4975797;28;20101;-74
2022/05/12 07:55:42;;;;;;;8.05;1.42;;;;;;;22.23;54.20;101680.41;4976720;28;20098;-74
2022/05/12 07:58:08;;;;;;;5.55;1.58;;;;;;;21.22;54.45;101651.66;4980604;28;20097;-74
2022/05/12 08:00:33;;;;;;;3.60;1.10;;;;;;;21.95;56.13;101693.00;4973204;28;20066;-73
2022/05/12 08:02:59;;;;;;;4.20;1.27;;;;;;;22.48;55.26;101694.06;4974319;28;20027;-74
2022/05/12 08:05:25;;;;;;;7.95;1.50;;;;;;;22.75;53.74;101681.38;4973790;28;20026;-74
2022/05/12 08:07:51;;;;;;;8.98;1.48;;;;;;;23.77;51.20;101682.44;4962899;28;20119;-73
2022/05/12 08:10:17;;;;;;;3.47;1.08;;;;;;;24.27;49.50;101697.81;4976268;28;20047;-74
2022/05/12 08:12:42;;;;;;;5.40;1.40;;;;;;;24.27;49.90;101694.31;4954767;28;20117;-74
2022/05/12 08:15:12;;;;;;;10.60;1.60;;;;;;;24.80;49.83;101691.97;4982114;28;20038;-74
2022/05/12 08:17:37;;;;;;;5.05;1.30;;;;;;;24.64;47.01;101660.97;4951105;28;20039;-73
2022/05/12 08:20:05;;;;;;;3.92;1.00;;;;;;;23.47;49.59;101687.56;4977118;28;20543;-73
2022/05/12 08:22:31;;;;;;;7.10;1.30;;;;;;;24.26;49.04;101695.34;4971625;28;20062;-73
2022/05/12 08:24:57;;;;;;;3.53;1.45;;;;;;;24.60;48.07;101692.16;4957314;28;20059;-74
2022/05/12 08:27:23;;;;;;;5.35;1.10;;;;;;;24.95;47.15;101696.97;4970879;28;20150;-74
2022/05/12 08:29:49;;;;;;;4.35;1.30;;;;;;;24.59;46.30;101698.59;4976623;28;20029;-74
2022/05/12 08:32:14;;;;;;;7.05;1.40;;;;;;;24.93;47.75;101709.88;4971301;28;20038;-74
2022/05/12 08:34:39;;;;;;;5.68;1.23;;;;;;;25.05;46.76;101699.16;4978576;28;20415;-73
2022/05/12 08:37:05;;;;;;;6.95;1.25;;;;;;;24.32;48.12;101692.59;4964478;28;20546;-74
2022/05/12 08:39:30;;;;;;;7.82;2.60;;;;;;;24.00;47.29;101705.31;4959258;28;20037;-74
2022/05/12 08:42:05;;;;;;;4.32;1.00;;;;;;;23.75;47.19;101684.50;4971846;28;20034;-72
2022/05/12 08:44:38;;;;;;;6.72;1.02;;;;;;;23.62;48.16;101708.81;4975527;28;20456;-73
2022/05/12 08:47:09;;;;;;;4.82;1.17;;;;;;;24.01;47.63;101706.94;4973462;28;20054;-73
2022/05/12 08:49:50;;;;;;;3.92;0.93;;;;;;;23.90;47.13;101705.78;4976553;28;20082;-73
2022/05/12 08:52:38;;;;;;;3.40;1.02;;;;;;;24.02;48.13;101709.44;4978150;28;20023;-72
2022/05/12 08:55:20;;;;;;;4.88;1.00;;;;;;;24.18;47.51;101707.25;4973467;28;20023;-73
2022/05/12 08:57:55;;;;;;;5.20;1.33;;;;;;;23.27;47.73;101716.47;4974731;28;20324;-73
2022/05/12 09:00:22;;;;;;;4.75;1.23;;;;;;;23.99;48.33;101715.25;4972855;28;20034;-74
2022/05/12 09:03:19;;;;;;;5.75;0.98;;;;;;;23.26;47.51;101722.91;4965586;28;20034;-73
2022/05/12 09:06:11;;;;;;;5.45;1.80;;;;;;;22.35;50.03;101705.66;4974522;28;20077;-74
2022/05/12 09:08:38;;;;;;;3.33;1.10;;;;;;;22.33;48.95;101711.22;4980744;28;20033;-73
2022/05/12 09:11:27;;;;;;;2.70;0.82;;;;;;;22.44;50.07;101722.41;4975906;28;20578;-73
2022/05/12 09:13:54;;;;;;;8.65;1.38;;;;;;;22.17;50.95;101725.88;4983378;28;20051;-73
2022/05/12 09:16:28;;;;;;;5.88;1.45;;;;;;;22.31;48.62;101715.16;4977311;28;20037;-73
2022/05/12 09:18:53;;;;;;;6.93;1.13;;;;;;;22.13;48.42;101716.56;4974640;28;20483;-72
2022/05/12 09:21:25;;;;;;;5.07;0.90;;;;;;;21.62;49.96;101722.44;4956754;28;20035;-73
2022/05/12 09:23:51;;;;;;;4.50;0.95;;;;;;;21.14;51.27;101735.84;4970649;28;20323;-73
2022/05/12 09:26:28;;;;;;;7.85;1.27;;;;;;;21.17;52.56;101736.31;4978400;28;20046;-73
2022/05/12 09:29:14;;;;;;;4.70;1.30;;;;;;;22.37;49.61;101722.41;4971645;28;20022;-72
2022/05/12 09:31:42;;;;;;;6.65;1.15;;;;;;;23.06;48.05;101734.56;4961433;28;20037;-72
2022/05/12 09:34:14;;;;;;;5.38;1.00;;;;;;;22.57;49.01;101739.34;4969775;28;20647;-73
2022/05/12 09:36:40;;;;;;;2.63;0.80;;;;;;;22.66;48.95;101726.50;4987056;28;20105;-73
2022/05/12 09:39:05;;;;;;;5.10;1.10;;;;;;;22.41;49.49;101728.19;4978029;28;20113;-74
2022/05/12 09:41:39;;;;;;;4.28;1.30;;;;;;;21.66;50.10;101737.13;4981194;28;20544;-74
2022/05/12 09:44:27;;;;;;;5.75;1.13;;;;;;;22.08;49.69;101745.94;4979368;28;20057;-72
2022/05/12 09:47:11;;;;;;;3.90;0.98;;;;;;;23.31;49.72;101739.22;4982520;28;20236;-72
2022/05/12 09:49:40;;;;;;;4.15;1.00;;;;;;;24.56;46.23;101741.41;4979823;28;20038;-73
2022/05/12 09:52:34;;;;;;;3.70;1.20;;;;;;;25.56;44.07;101743.84;4989009;28;20105;-72
2022/05/12 09:55:21;;;;;;;5.30;0.95;;;;;;;24.49;45.31;101746.03;4981946;28;20031;-73
2022/05/12 09:58:01;;;;;;;2.45;0.90;;;;;;;23.81;43.53;101740.25;4980731;28;20532;-73
2022/05/12 10:00:38;;;;;;;2.85;0.63;;;;;;;23.74;44.93;101736.75;4963957;28;20461;-73
2022/05/12 10:09:05;;;;;;;7.88;0.93;;;;;;;25.86;41.08;101751.13;4980130;28;20032;-73
2022/05/12 10:12:08;;;;;;;3.92;1.35;;;;;;;26.38;41.19;101745.16;4984059;28;20113;-73
2022/05/12 10:14:42;;;;;;;4.20;1.40;;;;;;;26.53;38.74;101752.81;4982205;28;20030;-73
2022/05/12 10:17:39;;;;;;;2.83;0.75;;;;;;;26.93;41.67;101755.66;4981644;28;20518;-73
2022/05/12 10:20:09;;;;;;;4.72;1.20;;;;;;;26.76;38.68;101738.47;4979408;28;20030;-73
2022/05/12 10:23:05;;;;;;;2.25;0.80;;;;;;;25.42;40.82;101745.91;4981694;28;20072;-73
2022/05/12 10:25:47;;;;;;;3.47;0.80;;;;;;;25.48;40.10;101727.09;4974792;28;20042;-73
2022/05/12 10:28:21;;;;;;;2.83;0.80;;;;;;;25.35;41.61;101752.44;4984092;28;20026;-73
2022/05/12 10:31:00;;;;;;;3.65;0.85;;;;;;;24.80;40.65;101747.81;4977352;28;20050;-73
2022/05/12 10:33:26;;;;;;;2.80;0.80;;;;;;;25.13;42.46;101755.56;4981311;28;20026;-73
2022/05/12 10:36:15;;;;;;;3.90;0.93;;;;;;;25.19;42.06;101757.38;4982450;28;20026;-73
2022/05/12 10:39:07;;;;;;;2.70;0.82;;;;;;;26.26;41.13;101756.81;4975730;28;20057;-72
2022/05/12 10:41:38;;;;;;;4.15;0.82;;;;;;;26.75;40.36;101753.91;4981223;28;20030;-73
2022/05/12 10:44:31;;;;;;;3.78;1.02;;;;;;;27.29;38.17;101759.16;4979716;28;20031;-72
2022/05/12 10:47:21;;;;;;;9.30;1.50;;;;;;;26.13;41.07;101764.28;4983900;28;20061;-72
2022/05/12 10:50:12;;;;;;;4.90;1.20;;;;;;;25.91;39.67;101759.41;4961421;28;20030;-72
2022/05/12 10:53:09;;;;;;;3.90;1.20;;;;;;;27.19;37.79;101764.34;4977858;28;20512;-72
2022/05/12 10:55:47;;;;;;;3.85;1.05;;;;;;;28.06;39.54;101764.16;4981533;28;20089;-72
2022/05/12 10:58:32;;;;;;;3.65;0.70;;;;;;;28.59;36.78;101743.06;4985652;28;20307;-72
2022/05/12 11:01:19;;;;;;;2.72;0.93;;;;;;;28.10;37.79;101769.94;4981154;28;20054;-72
2022/05/12 11:03:48;;;;;;;8.05;1.00;;;;;;;26.89;40.36;101768.03;4963165;28;20027;-72
2022/05/12 11:06:19;;;;;;;2.88;0.90;;;;;;;26.46;38.94;101766.47;4978755;28;20485;-72
2022/05/12 11:08:55;;;;;;;4.65;1.17;;;;;;;26.26;39.08;101764.06;4977203;28;20113;-72
2022/05/12 11:11:41;;;;;;;2.38;0.70;;;;;;;25.26;42.39;101765.44;4982116;28;20422;-72
2022/05/12 11:14:17;;;;;;;2.97;0.75;;;;;;;25.60;40.73;101763.94;4987349;28;20027;-73
2022/05/12 11:16:58;;;;;;;2.78;0.82;;;;;;;24.98;42.43;101763.22;4981939;28;20385;-73
2022/05/12 11:19:26;;;;;;;3.10;1.00;;;;;;;25.73;41.31;101760.25;4979353;28;20030;-73
2022/05/12 11:22:10;;;;;;;2.97;0.77;;;;;;;25.38;40.64;101763.59;4955225;28;20022;-73
2022/05/12 11:25:05;;;;;;;4.60;1.00;;;;;;;24.76;39.98;101762.78;4981608;28;20050;-73
2022/05/12 11:31:06;;;;;;;4.10;0.80;;;;;;;25.03;40.43;101758.78;4978393;28;20065;-73
2022/05/12 11:33:41;;;;;;;3.78;0.95;;;;;;;23.74;42.99;101758.31;4979307;28;20267;-73
2022/05/12 11:36:09;;;;;;;4.78;0.95;;;;;;;24.46;42.92;101759.94;4980943;28;20096;-73
2022/05/12 11:38:35;;;;;;;6.25;0.90;;;;;;;25.95;41.18;101755.19;4983522;28;20034;-73
2022/05/12 11:41:01;;;;;;;2.33;0.70;;;;;;;26.61;39.31;101752.50;4980222;28;20125;-73
2022/05/12 11:46:24;;;;;;;2.08;0.60;;;;;;;25.24;40.73;101765.66;4982806;28;20125;-74
2022/05/12 11:48:58;;;;;;;3.50;0.98;;;;;;;25.25;41.37;101761.06;4977668;28;20405;-72
2022/05/12 11:51:55;;;;;;;3.40;0.90;;;;;;;25.89;39.71;101766.09;4983526;28;20520;-72
2022/05/12 11:54:49;;;;;;;3.20;0.70;;;;;;;25.90;39.05;101757.75;4980134;28;20056;-72
2022/05/12 11:57:26;;;;;;;1.98;0.70;;;;;;;24.68;42.86;101749.59;4961409;28;20037;-73
2022/05/12 11:59:57;;;;;;;3.25;0.70;;;;;;;25.13;40.31;101760.97;4978014;28;20038;-73
2022/05/12 12:02:29;;;;;;;3.47;0.90;;;;;;;24.79;41.22;101762.38;4963172;28;20101;-72